Time;durP1;ratioP1;P1;durP2;ratioP2;P2;SDS_P1;SDS_P2;PMS_P1;PMS_P2;Temp;Humidity;BMP_temperature;BMP_pressure;BME280_temperature;BME280_humidity;BME280_pressure;Samples;Min_cycle;Max_cycle;Signal;HPM_P1;HPM_P2
2020/12/14 00:00:06;;;;;;;7.10;2.92;;;6.30;99.90;;;;;;5092304;28;20046;-80
2020/12/14 00:02:31;;;;;;;4.38;2.10;;;6.20;99.90;;;;;;5094109;28;20076;-80
2020/12/14 00:04:57;;;;;;;7.10;3.03;;;6.30;99.90;;;;;;5093897;28;20039;-80
2020/12/14 00:07:23;;;;;;;8.15;2.22;;;6.20;99.90;;;;;;5092709;28;20498;-79
2020/12/14 00:09:49;;;;;;;3.92;2.08;;;6.20;99.90;;;;;;5093283;28;20107;-80
2020/12/14 00:12:16;;;;;;;8.02;4.15;;;;;;;;;;5092312;28;20484;-80
2020/12/14 00:14:42;;;;;;;7.63;3.20;;;;;;;;;;5094000;28;20040;-80
2020/12/14 00:17:07;;;;;;;7.13;3.58;;;6.20;99.90;;;;;;5092578;28;20056;-81
2020/12/14 00:19:33;;;;;;;5.05;3.10;;;6.00;99.90;;;;;;5093561;28;20123;-80
2020/12/14 00:21:59;;;;;;;7.07;2.40;;;6.00;99.90;;;;;;5093892;28;20040;-80
2020/12/14 00:24:25;;;;;;;3.92;1.85;;;;;;;;;;5092567;28;20056;-80
2020/12/14 00:26:51;;;;;;;6.72;2.53;;;6.00;99.90;;;;;;5092487;28;20071;-80
2020/12/14 00:29:19;;;;;;;7.47;3.92;;;6.00;99.90;;;;;;5091880;28;20066;-80
2020/12/14 00:31:49;;;;;;;8.00;3.53;;;6.00;99.90;;;;;;5092772;28;20075;-80
2020/12/14 00:34:14;;;;;;;7.85;3.72;;;6.00;99.90;;;;;;5094940;28;20068;-80
2020/12/14 00:36:40;;;;;;;7.88;3.05;;;6.00;99.90;;;;;;5094621;28;20067;-80
2020/12/14 00:39:06;;;;;;;6.13;2.67;;;;;;;;;;5093895;28;20036;-80
2020/12/14 00:41:32;;;;;;;5.70;3.13;;;;;;;;;;5093932;28;20452;-80
2020/12/14 00:43:58;;;;;;;10.65;2.53;;;;;;;;;;5093715;28;20036;-80
2020/12/14 00:46:24;;;;;;;4.47;2.20;;;6.00;99.90;;;;;;5093638;28;20047;-79
2020/12/14 00:48:50;;;;;;;5.75;2.90;;;5.90;99.90;;;;;;5094549;28;20536;-80
2020/12/14 00:51:15;;;;;;;8.93;3.35;;;6.00;99.90;;;;;;5093842;28;20074;-80
2020/12/14 00:53:41;;;;;;;5.65;2.88;;;5.80;99.90;;;;;;5093562;28;20036;-80
2020/12/14 00:56:07;;;;;;;3.97;1.95;;;5.90;99.90;;;;;;5093626;28;20386;-80
2020/12/14 00:58:33;;;;;;;4.28;2.05;;;;;;;;;;5093490;28;20067;-80
2020/12/14 01:01:00;;;;;;;5.20;2.70;;;5.90;99.90;;;;;;5094870;28;20035;-80
2020/12/14 01:03:26;;;;;;;9.75;3.38;;;5.90;99.90;;;;;;5094507;28;20032;-80
2020/12/14 01:05:52;;;;;;;6.47;3.28;;;5.90;99.90;;;;;;5094475;28;20067;-80
2020/12/14 01:08:21;;;;;;;6.88;3.38;;;5.90;99.90;;;;;;5093027;28;20036;-80
2020/12/14 01:10:47;;;;;;;5.97;2.42;;;;;;;;;;5092704;28;20032;-80
2020/12/14 01:13:13;;;;;;;2.70;1.30;;;5.90;99.90;;;;;;5093094;28;20043;-80
2020/12/14 01:15:39;;;;;;;3.67;1.73;;;5.80;99.90;;;;;;5094645;28;20063;-80
2020/12/14 01:18:05;;;;;;;3.85;2.55;;;5.80;99.90;;;;;;5093948;28;20482;-80
2020/12/14 01:20:31;;;;;;;5.78;2.67;;;;;;;;;;5096049;28;20042;-80
2020/12/14 01:22:57;;;;;;;8.52;3.25;;;;;;;;;;5092976;28;20044;-80
2020/12/14 01:25:23;;;;;;;8.48;3.17;;;5.90;99.90;;;;;;5094061;28;20044;-79
2020/12/14 01:27:48;;;;;;;6.43;2.75;;;5.80;99.90;;;;;;5093506;28;20469;-78
2020/12/14 01:30:14;;;;;;;4.88;2.78;;;5.80;99.90;;;;;;5093855;28;20044;-80
2020/12/14 01:32:40;;;;;;;4.70;1.98;;;5.80;99.90;;;;;;5092568;28;20451;-80
2020/12/14 01:35:05;;;;;;;5.68;2.40;;;5.70;99.90;;;;;;5093860;28;20075;-80
2020/12/14 01:37:32;;;;;;;5.63;2.03;;;5.70;99.90;;;;;;5094009;28;20032;-80
2020/12/14 01:39:58;;;;;;;5.13;2.38;;;;;;;;;;5092352;28;20044;-80
2020/12/14 01:42:23;;;;;;;2.00;1.17;;;5.80;99.90;;;;;;5092719;28;20047;-81
2020/12/14 01:44:49;;;;;;;6.78;2.95;;;5.80;99.90;;;;;;5095030;28;20042;-82
2020/12/14 01:47:28;;;;;;;6.78;2.40;;;5.80;99.90;;;;;;5092285;28;20040;-80
2020/12/14 01:49:54;;;;;;;7.63;2.88;;;5.80;99.90;;;;;;5092774;28;20063;-80
2020/12/14 01:52:20;;;;;;;3.20;1.77;;;5.90;99.90;;;;;;5093043;28;20490;-80
2020/12/14 01:54:48;;;;;;;3.10;1.75;;;5.80;99.90;;;;;;5092428;28;20045;-81
2020/12/14 01:57:14;;;;;;;2.03;1.17;;;5.90;99.90;;;;;;5093679;28;20119;-80
2020/12/14 01:59:39;;;;;;;6.45;2.88;;;5.90;99.90;;;;;;5091870;28;20489;-80
2020/12/14 02:02:05;;;;;;;1.55;1.02;;;5.80;99.90;;;;;;5092407;28;20089;-80
2020/12/14 02:04:31;;;;;;;5.60;2.47;;;5.90;99.90;;;;;;5092126;28;20485;-79
2020/12/14 02:06:56;;;;;;;2.30;1.02;;;5.90;99.90;;;;;;5093726;28;20102;-80
2020/12/14 02:09:22;;;;;;;8.20;2.70;;;5.90;99.90;;;;;;5092253;28;20040;-80
2020/12/14 02:11:48;;;;;;;5.15;2.30;;;5.90;99.90;;;;;;5094233;28;20044;-80
2020/12/14 02:14:14;;;;;;;6.55;1.92;;;5.80;99.90;;;;;;5093557;28;20044;-80
2020/12/14 02:16:40;;;;;;;3.25;1.63;;;5.80;99.90;;;;;;5092194;28;20042;-80
2020/12/14 02:19:06;;;;;;;4.38;1.95;;;;;;;;;;5091949;28;20078;-80
2020/12/14 02:21:31;;;;;;;2.90;1.27;;;5.80;99.90;;;;;;5093409;28;20043;-80
2020/12/14 02:23:57;;;;;;;6.90;2.90;;;5.80;99.90;;;;;;5092221;28;20034;-80
2020/12/14 02:26:23;;;;;;;8.32;2.67;;;5.70;99.90;;;;;;5093391;28;20097;-79
2020/12/14 02:28:49;;;;;;;6.75;2.53;;;5.70;99.90;;;;;;5091919;28;20049;-81
2020/12/14 02:31:14;;;;;;;4.38;1.88;;;5.70;99.90;;;;;;5093234;28;20046;-80
2020/12/14 02:33:40;;;;;;;4.10;2.15;;;5.60;99.90;;;;;;5091988;28;20101;-80
2020/12/14 02:36:06;;;;;;;4.57;2.08;;;5.70;99.90;;;;;;5092230;28;20050;-80
2020/12/14 02:38:31;;;;;;;1.10;0.80;;;5.70;99.90;;;;;;5093428;28;20064;-79
2020/12/14 02:40:57;;;;;;;4.47;2.50;;;5.70;99.90;;;;;;5091859;28;20059;-80
2020/12/14 02:43:24;;;;;;;3.88;2.03;;;;;;;;;;5093186;28;20541;-79
2020/12/14 02:45:49;;;;;;;3.22;1.67;;;5.70;99.90;;;;;;5091917;28;20067;-79
2020/12/14 02:48:15;;;;;;;6.72;2.33;;;5.50;99.90;;;;;;5093231;28;20489;-80
2020/12/14 02:50:41;;;;;;;3.30;1.88;;;5.70;99.90;;;;;;5091550;28;20477;-80
2020/12/14 02:53:06;;;;;;;7.50;2.85;;;5.70;99.90;;;;;;5093387;28;20046;-80
2020/12/14 02:55:32;;;;;;;6.65;2.20;;;5.70;99.90;;;;;;5093107;28;20036;-80
2020/12/14 02:57:57;;;;;;;7.07;2.83;;;5.70;99.90;;;;;;5092149;28;20060;-80
2020/12/14 03:00:24;;;;;;;5.75;2.42;;;;;;;;;;5095251;28;20040;-80
2020/12/14 03:02:50;;;;;;;5.85;2.72;;;5.70;99.90;;;;;;5096984;28;20055;-80
2020/12/14 03:05:15;;;;;;;7.22;2.75;;;5.70;99.90;;;;;;5095518;28;20031;-81
2020/12/14 03:07:41;;;;;;;4.22;2.03;;;5.70;99.90;;;;;;5095585;28;20051;-80
2020/12/14 03:10:07;;;;;;;6.43;2.40;;;5.60;99.90;;;;;;5096063;28;20048;-80
2020/12/14 03:12:32;;;;;;;5.25;2.33;;;5.60;99.90;;;;;;5096975;28;20032;-80
2020/12/14 03:14:58;;;;;;;9.07;3.00;;;5.60;99.90;;;;;;5096791;28;20040;-80
2020/12/14 03:17:24;;;;;;;5.38;1.88;;;5.70;99.90;;;;;;5096379;28;20055;-80
2020/12/14 03:19:50;;;;;;;6.22;2.22;;;5.80;99.90;;;;;;5095044;28;20048;-80
2020/12/14 03:22:16;;;;;;;3.15;1.42;;;5.80;99.90;;;;;;5095356;28;20050;-80
2020/12/14 03:24:41;;;;;;;4.18;2.25;;;5.90;99.90;;;;;;5095571;28;20566;-80
2020/12/14 03:27:07;;;;;;;1.85;1.10;;;;;;;;;;5095176;28;20474;-80
2020/12/14 03:29:33;;;;;;;6.60;2.45;;;;;;;;;;5094839;28;20047;-80
2020/12/14 03:31:59;;;;;;;6.88;2.47;;;5.90;99.90;;;;;;5095009;28;20094;-80
2020/12/14 03:34:25;;;;;;;7.80;2.40;;;5.80;99.90;;;;;;5094993;28;20071;-80
2020/12/14 03:36:51;;;;;;;7.47;2.38;;;5.90;99.90;;;;;;5095196;28;20044;-81
2020/12/14 03:39:17;;;;;;;6.25;3.00;;;5.80;99.90;;;;;;5095700;28;20047;-81
2020/12/14 03:41:42;;;;;;;7.05;2.75;;;5.70;99.90;;;;;;5094956;28;20050;-80
2020/12/14 03:44:08;;;;;;;5.80;2.53;;;5.70;99.90;;;;;;5094760;28;20085;-80
2020/12/14 03:46:35;;;;;;;4.47;1.98;;;5.70;99.90;;;;;;5096057;28;20443;-80
2020/12/14 03:49:01;;;;;;;7.47;2.92;;;5.70;99.90;;;;;;5094221;28;20043;-80
2020/12/14 03:51:28;;;;;;;8.30;3.45;;;5.70;99.90;;;;;;5095804;28;20535;-80
2020/12/14 03:53:54;;;;;;;3.83;1.77;;;5.70;99.90;;;;;;5094401;28;20130;-80
2020/12/14 03:56:20;;;;;;;4.38;2.08;;;;;;;;;;5095831;28;20123;-80
2020/12/14 03:58:46;;;;;;;6.60;3.33;;;5.80;99.90;;;;;;5093993;28;20044;-80
2020/12/14 04:01:12;;;;;;;6.18;1.67;;;;;;;;;;5095680;28;20115;-80
2020/12/14 04:03:38;;;;;;;2.92;1.70;;;5.90;99.90;;;;;;5094387;28;20032;-80
2020/12/14 04:06:04;;;;;;;5.28;1.80;;;6.00;99.90;;;;;;5094056;28;20036;-80
2020/12/14 04:08:30;;;;;;;6.50;2.65;;;6.10;99.90;;;;;;5094450;28;20035;-80
2020/12/14 04:10:56;;;;;;;6.80;2.67;;;6.20;99.90;;;;;;5092911;28;20047;-80
2020/12/14 04:13:21;;;;;;;5.75;1.50;;;6.20;99.90;;;;;;5095647;28;20036;-80
2020/12/14 04:15:47;;;;;;;7.40;3.17;;;6.20;99.90;;;;;;5094278;28;20067;-81
2020/12/14 04:18:13;;;;;;;6.07;2.80;;;6.20;99.90;;;;;;5093728;28;20122;-80
2020/12/14 04:20:38;;;;;;;4.57;1.90;;;6.20;99.90;;;;;;5093612;28;20444;-80
2020/12/14 04:23:04;;;;;;;4.63;2.08;;;6.30;99.90;;;;;;5093943;28;20126;-80
2020/12/14 04:25:30;;;;;;;5.63;2.58;;;6.20;99.90;;;;;;5094529;28;20485;-80
2020/12/14 04:27:59;;;;;;;6.57;2.75;;;6.20;99.90;;;;;;5093893;28;20044;-80
2020/12/14 04:30:25;;;;;;;6.78;2.25;;;6.20;99.90;;;;;;5093312;28;20047;-80
2020/12/14 04:32:51;;;;;;;7.60;3.00;;;6.20;99.90;;;;;;5094781;28;20036;-80
2020/12/14 04:35:17;;;;;;;6.78;2.85;;;6.30;99.90;;;;;;5095083;28;20389;-80
2020/12/14 04:37:42;;;;;;;6.05;3.25;;;6.30;99.90;;;;;;5094133;28;20028;-80
2020/12/14 04:40:08;;;;;;;7.05;2.97;;;6.30;99.90;;;;;;5094422;28;20545;-80
2020/12/14 04:42:36;;;;;;;7.57;3.05;;;6.30;99.90;;;;;;5093805;28;20047;-80
2020/12/14 04:45:02;;;;;;;7.72;2.92;;;6.30;99.90;;;;;;5093832;28;20073;-80
2020/12/14 04:47:28;;;;;;;5.30;2.67;;;6.30;99.90;;;;;;5093678;28;20040;-80
2020/12/14 04:49:55;;;;;;;7.60;2.88;;;6.40;99.90;;;;;;5094160;28;20039;-80
2020/12/14 04:52:23;;;;;;;8.13;1.65;;;6.40;99.90;;;;;;5095287;28;20032;-80
2020/12/14 04:54:49;;;;;;;6.22;2.55;;;6.40;99.90;;;;;;5095733;28;20095;-81
2020/12/14 04:57:19;;;;;;;1.77;1.33;;;6.40;99.90;;;;;;5095349;28;20047;-81
2020/12/14 04:59:45;;;;;;;3.83;2.28;;;;;;;;;;5094586;28;20040;-80
2020/12/14 05:02:11;;;;;;;5.75;2.45;;;6.40;99.90;;;;;;5094546;28;20045;-80
2020/12/14 05:04:38;;;;;;;8.07;2.47;;;6.40;99.90;;;;;;5094508;28;20039;-80
2020/12/14 05:07:04;;;;;;;2.00;1.05;;;;;;;;;;5093097;28;20101;-80
2020/12/14 05:09:30;;;;;;;5.97;2.65;;;6.50;99.90;;;;;;5092847;28;20040;-80
2020/12/14 05:11:56;;;;;;;6.68;3.00;;;6.50;99.90;;;;;;5093084;28;20051;-80
2020/12/14 05:14:23;;;;;;;5.10;1.77;;;6.50;99.90;;;;;;5072901;28;20505;-80
2020/12/14 05:16:50;;;;;;;4.65;2.78;;;6.50;99.90;;;;;;5080526;28;20054;-80
2020/12/14 05:19:17;;;;;;;7.72;2.90;;;6.50;99.90;;;;;;5094119;28;20047;-80
2020/12/14 05:21:47;;;;;;;6.05;2.78;;;6.60;99.90;;;;;;5092858;28;20036;-80
2020/12/14 05:24:24;;;;;;;4.00;1.60;;;6.60;99.90;;;;;;5094562;28;20032;-79
2020/12/14 05:26:50;;;;;;;4.75;2.45;;;;;;;;;;5094256;28;20043;-80
2020/12/14 05:29:18;;;;;;;5.30;2.70;;;6.60;99.90;;;;;;5092357;28;20505;-80
2020/12/14 05:31:59;;;;;;;6.35;2.85;;;;;;;;;;5094135;28;20134;-80
2020/12/14 05:34:29;;;;;;;3.17;1.65;;;6.50;99.90;;;;;;5093802;28;20044;-80
2020/12/14 05:36:56;;;;;;;4.13;2.03;;;6.50;99.90;;;;;;5092828;28;20044;-80
2020/12/14 05:39:25;;;;;;;2.38;1.60;;;6.50;99.90;;;;;;5093507;28;20085;-80
2020/12/14 05:41:51;;;;;;;5.90;2.47;;;6.50;99.90;;;;;;5092663;28;20047;-80
2020/12/14 05:44:26;;;;;;;4.18;2.47;;;6.50;99.90;;;;;;5092964;28;20032;-80
2020/12/14 05:46:52;;;;;;;6.07;2.33;;;6.40;99.90;;;;;;5093886;28;20040;-80
2020/12/14 05:49:18;;;;;;;2.05;1.23;;;6.40;99.90;;;;;;5092379;28;20039;-80
2020/12/14 05:51:48;;;;;;;4.80;2.50;;;6.40;99.90;;;;;;5093779;28;20093;-80
2020/12/14 05:54:20;;;;;;;2.90;1.67;;;6.40;99.90;;;;;;5092454;28;20089;-80
2020/12/14 05:56:48;;;;;;;4.55;2.20;;;6.40;99.90;;;;;;5092595;28;20035;-79
2020/12/14 05:59:19;;;;;;;4.53;2.28;;;6.40;99.90;;;;;;5091924;28;20043;-80
2020/12/14 06:01:46;;;;;;;5.13;2.20;;;;;;;;;;5093658;28;20044;-80
2020/12/14 06:04:13;;;;;;;2.75;1.60;;;6.40;99.90;;;;;;5092287;28;20444;-80
2020/12/14 06:06:47;;;;;;;6.28;2.90;;;6.30;99.90;;;;;;5093590;28;20083;-80
2020/12/14 06:09:20;;;;;;;7.55;2.92;;;6.40;99.90;;;;;;5092625;28;20043;-80
2020/12/14 06:11:51;;;;;;;6.55;2.25;;;6.40;99.90;;;;;;5092640;28;20040;-80
2020/12/14 06:14:19;;;;;;;2.72;1.42;;;6.50;99.90;;;;;;5092453;28;20048;-80
2020/12/14 06:16:46;;;;;;;2.95;1.35;;;6.40;99.90;;;;;;5093520;28;20044;-80
2020/12/14 06:19:13;;;;;;;3.47;1.80;;;6.50;99.90;;;;;;5092049;28;20036;-80
2020/12/14 06:21:42;;;;;;;4.43;2.35;;;6.50;99.90;;;;;;5093551;28;20040;-80
2020/12/14 06:24:19;;;;;;;2.47;0.83;;;6.50;99.90;;;;;;5092431;28;20040;-80
2020/12/14 06:26:46;;;;;;;5.30;2.28;;;6.50;99.90;;;;;;5092462;28;20063;-80
2020/12/14 06:29:27;;;;;;;6.35;2.70;;;6.60;99.90;;;;;;5092466;28;20040;-80
2020/12/14 06:31:53;;;;;;;5.28;2.30;;;6.60;99.90;;;;;;5093269;28;20101;-81
2020/12/14 06:34:37;;;;;;;5.45;2.35;;;6.60;99.90;;;;;;5096348;28;20044;-81
2020/12/14 06:37:03;;;;;;;4.47;1.85;;;6.60;99.90;;;;;;5097780;28;20075;-80
2020/12/14 06:39:31;;;;;;;4.65;2.15;;;6.60;99.90;;;;;;5097036;28;20093;-80
2020/12/14 06:42:21;;;;;;;5.32;2.38;;;6.60;99.90;;;;;;5096114;28;20036;-80
2020/12/14 06:45:06;;;;;;;4.57;2.00;;;6.60;99.90;;;;;;5094907;28;20039;-80
2020/12/14 06:47:40;;;;;;;4.13;2.05;;;6.60;99.90;;;;;;5095834;28;20044;-80
2020/12/14 06:50:28;;;;;;;4.47;2.05;;;6.60;99.90;;;;;;5095277;28;20475;-80
2020/12/14 06:52:54;;;;;;;24.55;4.18;;;6.60;99.90;;;;;;5095757;28;20036;-80
2020/12/14 06:55:43;;;;;;;1.35;0.52;;;6.60;99.90;;;;;;5097029;28;20405;-80
2020/12/14 06:58:11;;;;;;;5.00;1.87;;;6.60;99.90;;;;;;5095610;28;20536;-80
2020/12/14 07:00:37;;;;;;;3.33;1.30;;;6.60;99.90;;;;;;5096586;28;20040;-80
2020/12/14 07:03:03;;;;;;;3.90;2.08;;;6.60;99.90;;;;;;5096626;28;20476;-80
2020/12/14 07:05:33;;;;;;;6.65;2.97;;;6.60;99.90;;;;;;5095444;28;20036;-80
2020/12/14 07:07:59;;;;;;;6.47;2.38;;;6.60;99.90;;;;;;5096705;28;20032;-80
2020/12/14 07:10:26;;;;;;;8.23;3.03;;;6.60;99.90;;;;;;5095112;28;20036;-80
2020/12/14 07:12:53;;;;;;;7.40;2.60;;;6.70;99.90;;;;;;5095234;28;20046;-80
2020/12/14 07:15:24;;;;;;;7.25;2.40;;;6.70;99.90;;;;;;5095367;28;20040;-80
2020/12/14 07:18:02;;;;;;;4.82;2.53;;;6.70;99.90;;;;;;5095981;28;20462;-80
2020/12/14 07:20:28;;;;;;;7.75;2.25;;;6.70;99.90;;;;;;5094691;28;20043;-80
2020/12/14 07:23:00;;;;;;;7.07;3.17;;;6.70;99.90;;;;;;5096427;28;20040;-80
2020/12/14 07:25:25;;;;;;;3.53;1.60;;;6.80;99.90;;;;;;5095228;28;20507;-80
2020/12/14 07:27:52;;;;;;;4.57;2.47;;;6.80;99.90;;;;;;5096303;28;20040;-80
2020/12/14 07:30:19;;;;;;;2.60;1.50;;;6.80;99.90;;;;;;5094411;28;20138;-80
2020/12/14 07:32:46;;;;;;;2.55;1.38;;;6.80;99.90;;;;;;5094984;28;20028;-80
2020/12/14 07:35:12;;;;;;;3.10;1.75;;;6.90;99.90;;;;;;5095844;28;20064;-80
2020/12/14 07:37:40;;;;;;;3.72;1.92;;;6.90;99.90;;;;;;5094762;28;20067;-80
2020/12/14 07:40:07;;;;;;;4.45;2.85;;;7.00;99.90;;;;;;5095612;28;20039;-80
2020/12/14 07:42:35;;;;;;;6.68;2.28;;;7.00;99.90;;;;;;5096120;28;20047;-80
2020/12/14 07:45:09;;;;;;;6.50;3.50;;;6.90;99.90;;;;;;5093259;28;20398;-80
2020/12/14 07:47:35;;;;;;;1.58;0.98;;;7.00;99.90;;;;;;5095815;28;20130;-80
2020/12/14 07:50:12;;;;;;;4.85;2.70;;;7.00;99.90;;;;;;5094144;28;20115;-80
2020/12/14 07:52:38;;;;;;;3.58;2.10;;;6.90;99.90;;;;;;5095449;28;20036;-80
2020/12/14 07:55:05;;;;;;;2.55;1.10;;;6.90;99.90;;;;;;5095541;28;20040;-80
2020/12/14 07:57:34;;;;;;;3.28;2.05;;;7.00;99.90;;;;;;5094655;28;20101;-80
2020/12/14 08:00:00;;;;;;;5.90;2.70;;;7.00;99.90;;;;;;5094094;28;20085;-80
2020/12/14 08:02:28;;;;;;;5.70;2.88;;;7.10;99.90;;;;;;5094342;28;20035;-80
2020/12/14 08:05:03;;;;;;;4.03;2.47;;;7.20;99.90;;;;;;5094308;28;20032;-80
2020/12/14 08:07:35;;;;;;;4.18;2.25;;;7.20;99.90;;;;;;5095232;28;20044;-80
2020/12/14 08:10:02;;;;;;;3.97;1.98;;;7.10;99.90;;;;;;5095149;28;20032;-80
2020/12/14 08:12:28;;;;;;;3.28;1.70;;;7.10;99.90;;;;;;5095370;28;20028;-80
2020/12/14 08:14:54;;;;;;;7.55;3.10;;;7.10;99.90;;;;;;5094005;28;20090;-80
2020/12/14 08:17:21;;;;;;;5.15;2.72;;;7.10;99.90;;;;;;5093928;28;20588;-80
2020/12/14 08:19:47;;;;;;;3.00;1.48;;;7.10;99.90;;;;;;5093485;28;20118;-79
2020/12/14 08:22:13;;;;;;;3.47;1.52;;;7.10;99.90;;;;;;5093827;28;20046;-79
2020/12/14 08:24:41;;;;;;;5.05;2.50;;;7.10;99.90;;;;;;5094995;28;20119;-79
2020/12/14 08:27:09;;;;;;;2.50;1.73;;;7.30;99.90;;;;;;5093874;28;20131;-79
2020/12/14 08:29:40;;;;;;;8.15;2.95;;;7.20;99.90;;;;;;5094839;28;20036;-79
2020/12/14 08:32:12;;;;;;;4.15;2.38;;;7.30;99.90;;;;;;5094993;28;20127;-78
2020/12/14 08:34:38;;;;;;;6.30;2.67;;;7.30;99.90;;;;;;5093566;28;20040;-79
2020/12/14 08:37:05;;;;;;;3.35;1.90;;;7.40;99.90;;;;;;5093626;28;20043;-79
2020/12/14 08:39:32;;;;;;;6.47;3.10;;;7.40;99.90;;;;;;5092887;28;20501;-79
2020/12/14 08:42:09;;;;;;;6.53;3.28;;;7.50;99.90;;;;;;5095194;28;20032;-79
2020/12/14 08:44:36;;;;;;;8.32;3.28;;;7.50;99.90;;;;;;5093463;28;20036;-79
2020/12/14 08:47:01;;;;;;;4.55;2.70;;;7.50;99.90;;;;;;5094593;28;20046;-80
2020/12/14 08:49:27;;;;;;;5.85;2.53;;;7.50;99.90;;;;;;5092909;28;20138;-79
2020/12/14 08:51:53;;;;;;;5.82;2.70;;;7.60;99.90;;;;;;5094379;28;20039;-79
2020/12/14 08:54:20;;;;;;;6.22;2.90;;;7.50;99.90;;;;;;5094555;28;20512;-79
2020/12/14 08:56:47;;;;;;;5.05;2.28;;;7.60;99.90;;;;;;5093040;28;20044;-79
2020/12/14 08:59:14;;;;;;;3.53;1.52;;;7.60;99.90;;;;;;5081068;28;20090;-79
2020/12/14 09:01:40;;;;;;;3.03;1.13;;;7.60;99.90;;;;;;5074037;28;20455;-79
2020/12/14 09:04:05;;;;;;;5.68;2.63;;;7.70;99.90;;;;;;5093555;28;20043;-80
2020/12/14 09:06:33;;;;;;;5.28;2.63;;;7.70;99.90;;;;;;5093017;28;20036;-79
2020/12/14 09:09:01;;;;;;;3.08;1.33;;;7.70;99.90;;;;;;5093793;28;20039;-79
2020/12/14 09:11:29;;;;;;;5.40;1.80;;;7.80;99.90;;;;;;5092828;28;20072;-79
2020/12/14 09:13:56;;;;;;;5.13;2.10;;;7.90;99.90;;;;;;5092910;28;20520;-80
2020/12/14 09:16:22;;;;;;;3.38;1.48;;;7.90;99.90;;;;;;5093854;28;20043;-80
2020/12/14 09:18:47;;;;;;;7.10;2.35;;;8.00;99.90;;;;;;5092301;28;20131;-79
2020/12/14 09:21:13;;;;;;;6.53;2.13;;;8.10;99.90;;;;;;5093904;28;20109;-79
2020/12/14 09:23:39;;;;;;;5.15;2.40;;;8.10;99.90;;;;;;5092861;28;20058;-79
2020/12/14 09:26:05;;;;;;;6.97;2.33;;;8.10;99.90;;;;;;5093332;28;20464;-79
2020/12/14 09:28:34;;;;;;;6.43;2.53;;;7.90;99.90;;;;;;5093950;28;20093;-79
2020/12/14 09:31:00;;;;;;;5.68;2.83;;;7.90;99.90;;;;;;5092503;28;20567;-79
2020/12/14 09:33:25;;;;;;;6.45;2.65;;;7.70;99.90;;;;;;5093779;28;20032;-79
2020/12/14 09:35:51;;;;;;;4.53;2.45;;;7.50;99.90;;;;;;5093745;28;20090;-79
2020/12/14 09:38:16;;;;;;;6.60;3.40;;;7.50;99.90;;;;;;5094014;28;20036;-79
2020/12/14 09:40:42;;;;;;;4.43;2.22;;;7.40;99.90;;;;;;5092113;28;20461;-79
2020/12/14 09:43:08;;;;;;;6.68;3.10;;;7.30;99.90;;;;;;5093852;28;20551;-80
2020/12/14 09:45:34;;;;;;;6.63;1.15;;;7.20;99.90;;;;;;5092529;28;20127;-79
2020/12/14 09:48:00;;;;;;;2.08;1.20;;;7.10;99.90;;;;;;5092282;28;20136;-80
2020/12/14 09:50:27;;;;;;;6.38;4.05;;;7.10;99.90;;;;;;5085922;28;20111;-80
2020/12/14 09:52:52;;;;;;;3.22;1.80;;;7.00;99.90;;;;;;5073428;28;20032;-80
2020/12/14 09:55:18;;;;;;;8.98;3.67;;;7.10;99.90;;;;;;5072145;28;20490;-80
2020/12/14 09:57:43;;;;;;;4.00;2.50;;;7.00;99.90;;;;;;5072077;28;20448;-80
2020/12/14 10:00:09;;;;;;;6.22;3.15;;;7.00;99.90;;;;;;5071643;28;20044;-80
2020/12/14 10:02:35;;;;;;;5.80;3.10;;;7.10;99.90;;;;;;5073457;28;20127;-80
2020/12/14 10:05:46;;;;;;;8.18;3.60;;;7.10;99.90;;;;;;5077832;28;20052;-82
2020/12/14 10:08:12;;;;;;;5.22;3.05;;;7.10;99.90;;;;;;5076934;28;20117;-80
2020/12/14 10:10:38;;;;;;;3.10;1.95;;;7.00;99.90;;;;;;5097580;28;20071;-80
2020/12/14 10:13:05;;;;;;;12.18;4.13;;;7.00;99.90;;;;;;5097617;28;20047;-80
2020/12/14 10:15:31;;;;;;;9.23;4.45;;;7.00;99.90;;;;;;5096358;28;20051;-80
2020/12/14 10:17:57;;;;;;;5.10;2.40;;;7.00;99.90;;;;;;5095985;28;20474;-80
2020/12/14 10:20:23;;;;;;;8.55;4.30;;;7.00;99.90;;;;;;5097212;28;20051;-80
2020/12/14 10:22:49;;;;;;;7.00;4.10;;;7.00;99.90;;;;;;5096245;28;20040;-80
2020/12/14 10:25:14;;;;;;;7.07;4.00;;;7.10;99.90;;;;;;5091714;28;20078;-80
2020/12/14 10:27:40;;;;;;;7.22;3.85;;;7.00;99.90;;;;;;5074176;28;20044;-80
2020/12/14 10:30:05;;;;;;;7.82;4.47;;;7.10;99.90;;;;;;5078071;28;20087;-80
2020/12/14 10:32:31;;;;;;;6.90;4.03;;;7.10;99.90;;;;;;5096264;28;20040;-80
2020/12/14 10:34:57;;;;;;;6.20;3.25;;;7.10;99.90;;;;;;5096154;28;20036;-80
2020/12/14 10:37:23;;;;;;;3.83;2.22;;;7.20;99.90;;;;;;5092751;28;20044;-80
2020/12/14 10:39:49;;;;;;;7.03;3.72;;;7.20;99.90;;;;;;5092047;28;20055;-80
2020/12/14 10:42:14;;;;;;;10.48;4.68;;;7.30;99.90;;;;;;5094050;28;20052;-80
2020/12/14 10:44:40;;;;;;;7.15;3.58;;;7.30;99.90;;;;;;5093841;28;20042;-80
2020/12/14 10:47:06;;;;;;;6.43;2.97;;;7.40;99.90;;;;;;5094201;28;20039;-80
2020/12/14 10:49:32;;;;;;;6.47;3.72;;;7.40;99.90;;;;;;5092031;28;20047;-80
2020/12/14 10:52:02;;;;;;;5.38;2.72;;;7.40;99.90;;;;;;5092564;28;20449;-80
2020/12/14 10:54:28;;;;;;;8.65;3.95;;;7.40;99.90;;;;;;5093892;28;20036;-80
2020/12/14 10:56:53;;;;;;;5.80;2.88;;;7.40;99.90;;;;;;5092477;28;20477;-80
2020/12/14 10:59:19;;;;;;;8.20;4.40;;;7.40;99.90;;;;;;5092795;28;20044;-80
2020/12/14 11:01:49;;;;;;;7.60;4.05;;;7.40;99.90;;;;;;5093271;28;20424;-80
2020/12/14 11:04:14;;;;;;;3.95;2.35;;;7.40;99.90;;;;;;5091847;28;20301;-80
2020/12/14 11:06:40;;;;;;;5.68;2.90;;;7.40;99.90;;;;;;5091756;28;20048;-80
2020/12/14 11:09:06;;;;;;;7.97;4.85;;;7.40;99.90;;;;;;5092564;28;20050;-80
2020/12/14 11:11:32;;;;;;;7.60;3.75;;;7.40;99.90;;;;;;5091401;28;20044;-80
2020/12/14 11:13:59;;;;;;;4.75;2.17;;;7.40;99.90;;;;;;5091487;28;20516;-80
2020/12/14 11:16:25;;;;;;;7.13;3.92;;;7.50;99.90;;;;;;5091308;28;20058;-80
2020/12/14 11:18:51;;;;;;;9.48;4.55;;;7.60;99.90;;;;;;5091848;28;20131;-80
2020/12/14 11:21:16;;;;;;;8.48;4.40;;;7.50;99.90;;;;;;5092664;28;20047;-80
2020/12/14 11:23:42;;;;;;;6.82;3.28;;;7.60;99.90;;;;;;5092051;28;20059;-80
2020/12/14 11:26:08;;;;;;;12.70;4.95;;;7.70;99.90;;;;;;5092805;28;20737;-80
2020/12/14 11:28:34;;;;;;;7.28;3.55;;;7.70;99.90;;;;;;5091296;28;20409;-80
2020/12/14 11:30:59;;;;;;;6.68;3.60;;;7.70;99.90;;;;;;5092408;28;20047;-80
2020/12/14 11:33:25;;;;;;;8.82;4.13;;;7.70;99.90;;;;;;5092351;28;20067;-81
2020/12/14 11:35:50;;;;;;;4.43;1.98;;;7.80;99.90;;;;;;5090648;28;20092;-80
2020/12/14 11:38:16;;;;;;;7.03;3.67;;;7.80;99.90;;;;;;5091440;28;20044;-80
2020/12/14 11:40:42;;;;;;;5.53;3.20;;;7.80;99.90;;;;;;5090722;28;20039;-80
2020/12/14 11:43:08;;;;;;;6.65;3.42;;;7.90;99.90;;;;;;5091297;28;20148;-80
2020/12/14 11:45:33;;;;;;;5.35;3.35;;;7.90;99.90;;;;;;5092904;28;20047;-80
2020/12/14 11:47:59;;;;;;;6.03;2.88;;;7.80;99.90;;;;;;5090662;28;20039;-80
2020/12/14 11:50:25;;;;;;;4.32;2.28;;;7.80;99.90;;;;;;5090743;28;20097;-80
2020/12/14 11:52:50;;;;;;;4.57;2.25;;;7.90;99.90;;;;;;5092484;28;20094;-80
2020/12/14 11:55:16;;;;;;;4.88;3.08;;;8.00;99.90;;;;;;5090903;28;20047;-80
2020/12/14 11:57:42;;;;;;;4.80;2.90;;;8.00;99.90;;;;;;5091124;28;20051;-80
2020/12/14 12:00:11;;;;;;;4.35;2.72;;;8.20;99.90;;;;;;5089901;28;20032;-80
2020/12/14 12:02:37;;;;;;;3.47;1.98;;;8.30;99.90;;;;;;5092558;28;20040;-80
2020/12/14 12:05:03;;;;;;;7.28;3.13;;;8.30;99.90;;;;;;5091915;28;20470;-80
2020/12/14 12:07:29;;;;;;;4.65;1.67;;;8.20;99.90;;;;;;5093057;28;20179;-80
2020/12/14 12:09:54;;;;;;;5.70;2.65;;;8.20;99.90;;;;;;5090149;28;20132;-81
2020/12/14 12:12:20;;;;;;;8.40;2.38;;;8.30;99.90;;;;;;5087216;28;20040;-81
2020/12/14 12:14:46;;;;;;;4.97;2.47;;;8.30;99.90;;;;;;5072940;28;20033;-80
2020/12/14 12:17:12;;;;;;;3.05;1.95;;;8.30;99.90;;;;;;5075182;28;20040;-80
2020/12/14 12:19:38;;;;;;;4.70;2.47;;;8.40;99.90;;;;;;5071579;28;20718;-80
2020/12/14 12:22:04;;;;;;;3.33;2.00;;;8.30;99.90;;;;;;5073466;28;20040;-81
2020/12/14 12:24:29;;;;;;;6.95;3.08;;;8.20;99.90;;;;;;5072814;28;20036;-80
2020/12/14 12:26:55;;;;;;;8.38;3.50;;;10.80;99.90;;;;;;5069564;28;20074;-81
2020/12/14 12:29:21;;;;;;;7.50;3.67;;;8.20;99.90;;;;;;5070091;28;20050;-81
2020/12/14 12:31:51;;;;;;;6.45;3.28;;;8.20;99.90;;;;;;5083255;28;20047;-80
2020/12/14 12:34:18;;;;;;;4.43;2.20;;;8.20;99.90;;;;;;5089922;28;20278;-80
2020/12/14 12:36:49;;;;;;;5.30;2.90;;;8.20;99.90;;;;;;5094983;28;20127;-81
2020/12/14 12:39:14;;;;;;;4.82;2.50;;;8.30;99.90;;;;;;5098155;28;20377;-82
2020/12/14 12:41:44;;;;;;;5.60;3.13;;;8.30;99.90;;;;;;5097969;28;20036;-81
2020/12/14 12:44:10;;;;;;;3.58;1.98;;;8.30;99.90;;;;;;5097395;28;20096;-80
2020/12/14 12:46:36;;;;;;;2.78;1.65;;;8.30;99.90;;;;;;5092740;28;20043;-80
2020/12/14 12:49:01;;;;;;;5.78;3.25;;;8.40;99.90;;;;;;5094941;28;20044;-82
2020/12/14 12:51:28;;;;;;;4.63;2.65;;;8.30;99.90;;;;;;5096055;28;20127;-80
2020/12/14 12:53:53;;;;;;;6.88;2.80;;;8.40;99.90;;;;;;5093327;28;20044;-80
2020/12/14 12:56:22;;;;;;;5.43;2.60;;;8.40;99.90;;;;;;5093283;28;20275;-80
2020/12/14 12:58:48;;;;;;;4.25;2.80;;;8.40;99.90;;;;;;5095814;28;20044;-80
2020/12/14 13:01:13;;;;;;;5.85;2.42;;;8.40;99.90;;;;;;5092997;28;20062;-81